Time;durP1;ratioP1;P1;durP2;ratioP2;P2;SDS_P1;SDS_P2;PMS_P1;PMS_P2;Temp;Humidity;BMP_temperature;BMP_pressure;BME280_temperature;BME280_humidity;BME280_pressure;Samples;Min_cycle;Max_cycle;Signal;HPM_P1;HPM_P2
2022/09/03 00:00:22;;;;;;;2.03;0.98;;;;;;;16.49;52.12;98767.56;5067867;28;20035;-81
2022/09/03 00:02:57;;;;;;;1.30;0.90;;;;;;;16.35;51.69;98745.94;5076433;28;20111;-81
2022/09/03 00:05:50;;;;;;;1.20;1.10;;;;;;;16.40;52.42;98764.72;5059954;28;20543;-80
2022/09/03 00:08:26;;;;;;;3.78;1.30;;;;;;;16.31;52.16;98739.53;5076705;28;20439;-80
2022/09/03 00:11:01;;;;;;;1.67;0.90;;;;;;;16.41;52.11;98760.94;5065193;28;20021;-81
2022/09/03 00:13:42;;;;;;;1.40;1.02;;;;;;;16.24;52.28;98743.63;5061702;28;20020;-81
2022/09/03 00:16:11;;;;;;;1.40;1.30;;;;;;;16.36;52.10;98768.25;5066573;28;20032;-81
2022/09/03 00:18:47;;;;;;;1.38;1.10;;;;;;;16.34;52.37;98756.97;5063672;28;20091;-81
2022/09/03 00:21:31;;;;;;;;;;;;;;;16.26;52.72;98766.50;5069487;28;20058;-81
2022/09/03 00:24:02;;;;;;;1.17;1.02;;;;;;;16.26;52.60;98769.19;5068394;28;19924;-81
2022/09/03 00:26:32;;;;;;;2.95;1.30;;;;;;;16.13;52.84;98750.22;5066176;28;20035;-82
2022/09/03 00:29:20;;;;;;;2.15;1.10;;;;;;;16.21;52.95;98768.44;5048552;28;20037;-82
2022/09/03 00:32:00;;;;;;;1.38;1.25;;;;;;;16.11;53.19;98745.13;5064097;28;20380;-81
2022/09/03 00:34:33;;;;;;;1.13;1.02;;;;;;;16.11;53.52;98752.41;5066378;28;20103;-81
2022/09/03 00:36:58;;;;;;;2.67;0.80;;;;;;;16.04;53.05;98738.47;5067300;28;20111;-81
2022/09/03 00:39:26;;;;;;;1.40;1.10;;;;;;;16.11;53.05;98765.88;5059342;28;20119;-81
2022/09/03 00:41:51;;;;;;;0.82;0.75;;;;;;;16.12;53.58;98762.88;5060829;28;20032;-81
2022/09/03 00:44:36;;;;;;;1.52;1.20;;;;;;;16.13;53.04;98753.72;5082174;28;20031;-81
2022/09/03 00:47:28;;;;;;;0.82;0.82;;;;;;;16.15;53.26;98748.84;5067223;28;20070;-81
2022/09/03 00:50:13;;;;;;;2.53;1.20;;;;;;;16.02;53.12;98754.94;5062265;28;20037;-81
2022/09/03 00:53:10;;;;;;;1.30;1.20;;;;;;;16.11;53.37;98758.59;5063647;28;20025;-81
2022/09/03 00:56:03;;;;;;;1.58;1.25;;;;;;;16.06;53.39;98755.16;5058469;28;20024;-81
2022/09/03 00:59:07;;;;;;;1.33;1.25;;;;;;;16.04;53.30;98750.06;5058888;28;20024;-81
2022/09/03 01:01:44;;;;;;;2.53;1.60;;;;;;;15.92;53.44;98738.91;5063165;28;20058;-81
2022/09/03 01:04:43;;;;;;;2.28;1.27;;;;;;;15.89;53.41;98734.06;5067611;28;20051;-81
2022/09/03 01:07:17;;;;;;;1.38;1.17;;;;;;;15.21;55.64;98752.13;5069226;28;20395;-80
2022/09/03 01:10:02;;;;;;;1.38;1.13;;;;;;;15.35;54.94;98733.47;5062583;28;20029;-81
2022/09/03 01:12:49;;;;;;;1.80;1.48;;;;;;;15.65;53.99;98725.16;5066852;28;20124;-81
2022/09/03 01:15:50;;;;;;;3.33;1.45;;;;;;;15.85;53.88;98735.72;5065141;28;20032;-81
2022/09/03 01:18:27;;;;;;;3.70;1.63;;;;;;;15.86;53.82;98741.94;5059435;28;20020;-81
2022/09/03 01:21:14;;;;;;;2.60;1.00;;;;;;;15.83;54.16;98748.69;5059089;28;20033;-81
2022/09/03 01:23:47;;;;;;;4.50;1.48;;;;;;;15.73;53.89;98749.56;5065605;28;20138;-81
2022/09/03 01:26:25;;;;;;;1.00;1.00;;;;;;;15.85;54.23;98749.19;5069448;28;20025;-81
2022/09/03 01:29:18;;;;;;;2.38;1.02;;;;;;;15.81;54.10;98742.78;5075191;28;20131;-81
2022/09/03 01:32:14;;;;;;;1.55;1.45;;;;;;;15.81;54.06;98750.03;5077051;28;20035;-80
2022/09/03 01:34:52;;;;;;;1.87;1.40;;;;;;;15.71;54.47;98750.94;5061698;28;20458;-80
2022/09/03 01:37:57;;;;;;;1.88;1.25;;;;;;;15.66;54.97;98753.69;5059699;28;20083;-81
2022/09/03 01:40:52;;;;;;;1.20;1.15;;;;;;;15.51;54.68;98735.78;5009384;28;20159;-81
2022/09/03 01:43:42;;;;;;;2.08;1.23;;;;;;;15.65;55.15;98754.75;5067841;28;20030;-80
2022/09/03 01:46:29;;;;;;;2.72;1.15;;;;;;;15.65;54.36;98752.06;5066119;28;20086;-81
2022/09/03 01:49:13;;;;;;;1.48;1.10;;;;;;;15.52;55.18;98736.59;5067117;28;20025;-81
2022/09/03 01:51:40;;;;;;;3.67;1.50;;;;;;;15.55;54.88;98746.78;5062602;28;20035;-81
2022/09/03 01:54:09;;;;;;;2.03;1.63;;;;;;;15.58;55.01;98765.03;5060689;28;20025;-80
2022/09/03 01:56:58;;;;;;;3.42;1.40;;;;;;;15.61;54.85;98759.09;5060194;28;20028;-81
2022/09/03 01:59:38;;;;;;;2.30;1.48;;;;;;;15.54;54.91;98758.63;5058955;28;20127;-81
2022/09/03 02:02:19;;;;;;;3.67;1.10;;;;;;;15.37;55.27;98737.50;5062232;28;20484;-80
2022/09/03 02:05:13;;;;;;;2.20;1.52;;;;;;;15.49;55.05;98758.66;5061002;28;20085;-81
2022/09/03 02:07:40;;;;;;;2.20;1.40;;;;;;;15.47;55.12;98755.44;5063109;28;20248;-81
2022/09/03 02:10:19;;;;;;;1.08;1.00;;;;;;;15.32;55.11;98736.72;5060517;28;20033;-81
2022/09/03 02:12:52;;;;;;;1.45;1.13;;;;;;;15.48;55.39;98768.66;5062801;28;20188;-81
2022/09/03 02:15:21;;;;;;;1.33;1.08;;;;;;;15.45;55.43;98766.50;5066797;28;20037;-81
2022/09/03 02:17:49;;;;;;;2.03;1.40;;;;;;;15.46;55.44;98765.44;5060974;28;20045;-81
2022/09/03 02:20:19;;;;;;;1.45;1.35;;;;;;;15.23;55.27;98744.59;5060767;28;20032;-81
2022/09/03 02:22:46;;;;;;;1.33;1.20;;;;;;;15.28;55.17;98739.19;5062911;28;20036;-81
2022/09/03 02:25:12;;;;;;;1.45;0.98;;;;;;;15.37;55.59;98768.97;5063678;28;20435;-81
2022/09/03 02:27:38;;;;;;;2.00;1.35;;;;;;;15.29;55.24;98756.91;5062380;28;20051;-81
2022/09/03 02:30:05;;;;;;;1.42;1.10;;;;;;;15.24;55.48;98748.09;5059624;28;20032;-81
2022/09/03 02:32:31;;;;;;;1.92;1.50;;;;;;;15.16;55.68;98754.06;5066523;28;20031;-80
2022/09/03 02:34:57;;;;;;;1.80;1.38;;;;;;;15.32;55.57;98761.75;5027440;28;20961;-81
2022/09/03 02:37:22;;;;;;;3.13;1.33;;;;;;;15.17;55.59;98761.03;5048622;28;20034;-81
2022/09/03 02:39:49;;;;;;;1.02;1.02;;;;;;;15.17;55.75;98761.03;5052903;28;20138;-81
2022/09/03 02:42:15;;;;;;;1.88;1.27;;;;;;;15.19;55.58;98757.00;5044572;28;20132;-80
2022/09/03 02:45:03;;;;;;;3.53;1.77;;;;;;;15.00;55.96;98758.75;5048775;28;20123;-81
2022/09/03 02:47:32;;;;;;;1.92;1.25;;;;;;;15.06;56.15;98752.25;5052267;28;20460;-81
2022/09/03 02:49:57;;;;;;;1.90;1.40;;;;;;;15.02;56.38;98743.94;5064861;28;20070;-81
2022/09/03 02:52:22;;;;;;;2.55;1.67;;;;;;;15.13;56.11;98746.56;5039855;28;20052;-81
2022/09/03 02:54:48;;;;;;;1.65;1.55;;;;;;;15.20;55.96;98760.50;5062360;28;20408;-81
2022/09/03 02:57:15;;;;;;;5.50;1.70;;;;;;;15.17;56.11;98756.47;5042920;28;20040;-81
2022/09/03 02:59:45;;;;;;;2.08;1.50;;;;;;;15.12;56.28;98758.38;5058867;28;20704;-81
2022/09/03 03:02:11;;;;;;;1.83;1.50;;;;;;;15.14;56.28;98751.66;5057614;28;20063;-82
2022/09/03 03:04:37;;;;;;;1.58;1.48;;;;;;;14.97;56.33;98737.78;5057266;28;20059;-81
2022/09/03 03:07:03;;;;;;;5.00;1.30;;;;;;;15.11;56.25;98746.03;5062598;28;20021;-81
2022/09/03 03:09:29;;;;;;;1.63;1.52;;;;;;;15.01;56.56;98728.91;5061798;28;20052;-81
2022/09/03 03:11:55;;;;;;;1.70;1.20;;;;;;;14.98;56.12;98732.13;5030066;28;20123;-81
2022/09/03 03:14:21;;;;;;;2.88;1.67;;;;;;;15.10;56.52;98755.97;5064426;28;20052;-81
2022/09/03 03:16:47;;;;;;;3.28;1.42;;;;;;;14.97;56.65;98730.53;5076570;28;20032;-81
2022/09/03 03:19:12;;;;;;;1.35;1.25;;;;;;;14.94;56.68;98725.72;5038885;28;20039;-81
2022/09/03 03:21:38;;;;;;;1.13;0.98;;;;;;;15.01;56.49;98752.28;5045575;28;20039;-81
2022/09/03 03:24:03;;;;;;;2.00;1.80;;;;;;;14.95;56.83;98732.72;5065393;28;20669;-80
2022/09/03 03:26:29;;;;;;;2.50;1.75;;;;;;;14.89;57.05;98738.41;5062013;28;20036;-81
2022/09/03 03:28:57;;;;;;;1.90;1.70;;;;;;;14.96;57.19;98738.91;5068378;28;20044;-80
2022/09/03 03:31:22;;;;;;;2.88;1.50;;;;;;;14.84;57.09;98741.09;5065906;28;20384;-80
2022/09/03 03:33:57;;;;;;;3.33;1.50;;;;;;;14.97;57.03;98751.22;5071472;28;20020;-81
2022/09/03 03:36:25;;;;;;;1.80;1.70;;;;;;;14.84;57.24;98735.72;5055287;28;20029;-81
2022/09/03 03:38:56;;;;;;;3.00;1.73;;;;;;;14.82;56.87;98730.66;5057053;28;20463;-80
2022/09/03 03:41:28;;;;;;;2.45;1.63;;;;;;;14.73;56.91;98718.06;5072563;28;20051;-81
2022/09/03 03:43:56;;;;;;;2.28;1.30;;;;;;;14.93;57.20;98756.38;5070395;28;20032;-80
2022/09/03 03:46:22;;;;;;;2.08;1.60;;;;;;;14.76;57.43;98750.56;5073397;28;20037;-80
2022/09/03 03:48:49;;;;;;;1.80;1.70;;;;;;;14.68;57.53;98724.28;5067558;28;20051;-81
2022/09/03 03:51:15;;;;;;;1.48;1.20;;;;;;;14.71;57.59;98739.84;5048476;28;20040;-81
2022/09/03 03:53:41;;;;;;;1.70;1.60;;;;;;;14.92;57.31;98757.44;5067117;28;20024;-80
2022/09/03 03:56:09;;;;;;;2.50;1.52;;;;;;;14.75;57.40;98729.34;5067654;28;20024;-80
2022/09/03 03:58:36;;;;;;;1.83;1.50;;;;;;;14.78;57.63;98744.91;5065930;28;20567;-81
2022/09/03 04:01:09;;;;;;;1.70;1.60;;;;;;;14.72;57.40;98728.00;5059678;28;20439;-82
2022/09/03 04:03:35;;;;;;;1.48;1.25;;;;;;;14.63;57.88;98745.81;5068147;28;20016;-81
2022/09/03 04:06:03;;;;;;;1.67;1.58;;;;;;;14.47;58.12;98709.34;5061242;28;20076;-81
2022/09/03 04:08:29;;;;;;;3.88;1.67;;;;;;;14.80;57.85;98742.75;5050096;28;20111;-81
2022/09/03 04:11:00;;;;;;;1.85;1.70;;;;;;;14.75;57.78;98753.50;5050207;28;20036;-81
2022/09/03 04:13:30;;;;;;;3.30;1.63;;;;;;;14.61;57.92;98734.50;5063001;28;20020;-81
2022/09/03 04:16:01;;;;;;;2.95;1.60;;;;;;;14.75;57.78;98750.81;5033721;28;20111;-80
2022/09/03 04:18:26;;;;;;;3.03;1.38;;;;;;;14.71;57.99;98747.91;5045421;28;20028;-80
2022/09/03 04:20:52;;;;;;;2.92;1.63;;;;;;;14.69;58.06;98747.38;5027763;28;20028;-81
2022/09/03 04:23:17;;;;;;;1.45;1.35;;;;;;;14.73;58.01;98739.56;5064960;28;20074;-81
2022/09/03 04:25:43;;;;;;;8.25;2.08;;;;;;;14.75;57.85;98743.56;5047129;28;20503;-81
2022/09/03 04:28:09;;;;;;;1.77;1.38;;;;;;;14.53;58.17;98732.41;5065723;28;20404;-81
2022/09/03 04:30:36;;;;;;;2.78;1.67;;;;;;;14.65;58.01;98745.53;5069988;28;20090;-81
2022/09/03 04:33:01;;;;;;;2.15;1.63;;;;;;;14.60;57.98;98740.97;5049063;28;20025;-81
2022/09/03 04:35:28;;;;;;;1.75;1.63;;;;;;;14.61;58.26;98742.56;5042142;28;20442;-81
2022/09/03 04:37:54;;;;;;;7.53;1.83;;;;;;;14.72;58.22;98751.41;5049466;28;20037;-81
2022/09/03 04:40:20;;;;;;;2.05;1.77;;;;;;;14.61;58.15;98739.09;5066618;28;20028;-81
2022/09/03 04:42:45;;;;;;;2.03;1.92;;;;;;;14.62;58.33;98754.94;5033798;28;20067;-80
2022/09/03 04:45:17;;;;;;;2.30;1.42;;;;;;;14.70;58.36;98751.66;5060682;28;20471;-81
2022/09/03 04:47:45;;;;;;;2.22;1.73;;;;;;;14.65;58.29;98748.22;5061441;28;20040;-81
2022/09/03 04:50:12;;;;;;;1.95;1.50;;;;;;;14.58;58.61;98742.34;5065036;28;20637;-81
2022/09/03 04:52:37;;;;;;;1.55;1.45;;;;;;;14.42;58.44;98728.16;5063005;28;20123;-81
2022/09/03 04:55:03;;;;;;;3.30;1.30;;;;;;;14.52;58.42;98721.97;5059038;28;20029;-81
2022/09/03 04:57:33;;;;;;;5.10;1.80;;;;;;;14.56;58.69;98747.19;5059214;28;20029;-81
2022/09/03 04:59:59;;;;;;;2.13;1.30;;;;;;;14.59;58.63;98744.72;5056984;28;20500;-81
2022/09/03 05:02:24;;;;;;;2.85;1.98;;;;;;;14.63;58.69;98735.06;5049233;28;20044;-81
2022/09/03 05:04:51;;;;;;;2.03;1.30;;;;;;;14.61;58.44;98742.56;5035498;28;20033;-81
2022/09/03 05:07:18;;;;;;;2.10;1.80;;;;;;;14.67;58.40;98741.47;5065487;28;20119;-81
2022/09/03 05:09:43;;;;;;;2.45;1.80;;;;;;;14.55;58.38;98730.25;5066322;28;20060;-81
2022/09/03 05:12:09;;;;;;;2.15;1.95;;;;;;;14.71;58.17;98729.09;5060846;28;20465;-81
2022/09/03 05:14:35;;;;;;;2.03;1.52;;;;;;;14.64;58.33;98731.28;5065062;28;20041;-81
2022/09/03 05:17:00;;;;;;;2.00;1.65;;;;;;;14.65;58.26;98735.59;5044506;28;20043;-81
2022/09/03 05:19:26;;;;;;;1.98;1.67;;;;;;;14.64;58.47;98719.72;5028804;28;20049;-81
2022/09/03 05:21:51;;;;;;;3.00;1.92;;;;;;;14.65;58.67;98729.41;5042925;28;20032;-81
2022/09/03 05:24:17;;;;;;;4.95;1.80;;;;;;;14.79;58.48;98741.94;5063728;28;20477;-81
2022/09/03 05:26:42;;;;;;;1.67;1.30;;;;;;;14.76;58.43;98745.19;5051070;28;20120;-80
2022/09/03 05:29:08;;;;;;;2.15;1.67;;;;;;;14.91;58.28;98741.59;5047027;28;20222;-80
2022/09/03 05:31:36;;;;;;;3.38;1.85;;;;;;;14.99;58.37;98746.38;5062201;28;20031;-81
2022/09/03 05:34:07;;;;;;;1.75;1.60;;;;;;;14.89;58.88;98744.56;5065157;28;20492;-81
2022/09/03 05:36:35;;;;;;;2.40;1.90;;;;;;;14.93;58.45;98747.50;5025166;28;20039;-81
2022/09/03 05:39:00;;;;;;;3.80;1.77;;;;;;;14.94;58.66;98747.22;5065935;28;20473;-81
2022/09/03 05:41:27;;;;;;;3.72;1.73;;;;;;;14.91;58.50;98725.47;5042524;28;20086;-81
2022/09/03 05:43:55;;;;;;;2.58;1.70;;;;;;;14.99;58.36;98735.63;5052326;28;20098;-81
2022/09/03 05:46:25;;;;;;;2.63;2.05;;;;;;;14.98;58.63;98742.88;5078355;28;20038;-81
2022/09/03 05:48:50;;;;;;;3.15;2.03;;;;;;;15.09;58.33;98737.44;5057875;28;20743;-82
2022/09/03 05:51:17;;;;;;;3.13;2.15;;;;;;;14.99;58.49;98722.19;5049786;28;20029;-82
2022/09/03 05:53:45;;;;;;;2.33;1.95;;;;;;;15.02;58.81;98737.78;5047055;28;20033;-79
2022/09/03 05:56:13;;;;;;;4.90;2.40;;;;;;;15.02;58.59;98737.78;5057455;28;20036;-79
2022/09/03 05:58:43;;;;;;;2.63;1.63;;;;;;;15.02;58.95;98724.31;5051306;28;20166;-79
2022/09/03 06:01:26;;;;;;;3.63;2.00;;;;;;;15.08;58.74;98725.88;5060114;28;20028;-79
2022/09/03 06:04:04;;;;;;;2.70;1.70;;;;;;;15.11;58.98;98746.03;5062758;28;20032;-79
2022/09/03 06:06:32;;;;;;;1.58;1.35;;;;;;;15.11;58.57;98719.16;5060268;28;20025;-79
2022/09/03 06:09:03;;;;;;;1.90;1.70;;;;;;;15.09;58.54;98722.13;5057546;28;20059;-79
2022/09/03 06:11:31;;;;;;;2.30;1.77;;;;;;;15.08;59.26;98742.03;5056225;28;20035;-79
2022/09/03 06:14:01;;;;;;;5.53;1.95;;;;;;;15.06;59.17;98716.50;5059341;28;20056;-79
2022/09/03 06:16:28;;;;;;;3.53;1.45;;;;;;;15.21;58.83;98740.56;5060232;28;20408;-79
2022/09/03 06:18:53;;;;;;;2.40;1.60;;;;;;;15.17;58.98;98728.78;5060791;28;20036;-79
2022/09/03 06:21:19;;;;;;;2.38;1.90;;;;;;;15.24;58.90;98737.34;5060923;28;20025;-79
2022/09/03 06:23:50;;;;;;;4.57;1.83;;;;;;;15.22;58.79;98737.63;5063034;28;21664;-79
2022/09/03 06:26:16;;;;;;;2.50;1.70;;;;;;;15.34;59.38;98748.00;5067137;28;20035;-80
2022/09/03 06:28:43;;;;;;;2.17;1.98;;;;;;;14.98;60.76;98739.41;5062385;28;20032;-79
2022/09/03 06:31:10;;;;;;;2.92;1.80;;;;;;;15.13;59.26;98733.13;5065049;28;20487;-79
2022/09/03 06:33:37;;;;;;;2.63;1.95;;;;;;;15.43;58.98;98736.41;5060050;28;20465;-79
2022/09/03 06:36:05;;;;;;;7.18;2.10;;;;;;;15.05;60.02;98733.72;5058457;28;20487;-81
2022/09/03 06:38:34;;;;;;;2.20;2.00;;;;;;;15.33;59.23;98746.41;5062582;28;20032;-79
2022/09/03 06:41:01;;;;;;;4.18;2.13;;;;;;;14.64;63.10;98755.47;5063988;28;20044;-79
2022/09/03 06:43:28;;;;;;;2.17;1.98;;;;;;;14.74;61.23;98738.50;5061424;28;20389;-79
2022/09/03 06:45:58;;;;;;;6.65;2.10;;;;;;;14.94;60.78;98735.66;5025070;28;20025;-79
2022/09/03 06:48:24;;;;;;;3.25;1.80;;;;;;;14.62;62.60;98764.88;5067609;28;20054;-79
2022/09/03 06:50:54;;;;;;;3.03;1.95;;;;;;;15.02;61.43;98760.09;5067382;28;20219;-79
2022/09/03 06:53:21;;;;;;;2.75;2.50;;;;;;;15.07;61.05;98761.91;5066081;28;20025;-79
2022/09/03 06:55:54;;;;;;;2.88;1.90;;;;;;;14.88;61.84;98742.97;5063140;28;20037;-79
2022/09/03 06:58:20;;;;;;;2.15;1.85;;;;;;;14.81;62.00;98745.16;5065392;28;20074;-79
2022/09/03 07:00:46;;;;;;;2.78;2.33;;;;;;;14.59;63.35;98750.09;5051484;28;20428;-79
2022/09/03 07:03:11;;;;;;;4.57;2.22;;;;;;;14.40;63.78;98738.38;5063954;28;20127;-79
2022/09/03 07:05:37;;;;;;;3.13;1.83;;;;;;;14.95;62.50;98745.34;5045669;28;20025;-79
2022/09/03 07:08:03;;;;;;;4.18;2.30;;;;;;;14.61;62.96;98725.66;5057464;28;20086;-79
2022/09/03 07:10:28;;;;;;;4.35;1.95;;;;;;;14.37;63.27;98733.59;5067277;28;20531;-80
2022/09/03 07:12:54;;;;;;;4.00;2.45;;;;;;;14.74;62.64;98735.81;5048775;28;20132;-79
2022/09/03 07:15:20;;;;;;;3.10;2.10;;;;;;;14.83;62.29;98751.03;5060532;28;20078;-79
2022/09/03 07:17:46;;;;;;;8.93;2.90;;;;;;;14.94;62.50;98741.84;5060848;28;20480;-79
2022/09/03 07:20:11;;;;;;;5.25;2.10;;;;;;;14.80;62.31;98718.56;5061695;28;20035;-79
2022/09/03 07:22:36;;;;;;;5.40;2.40;;;;;;;14.89;62.99;98733.84;5069526;28;20051;-79
2022/09/03 07:25:02;;;;;;;29.33;3.90;;;;;;;14.85;62.54;98719.31;5069406;28;20083;-78
2022/09/03 07:27:27;;;;;;;13.15;2.97;;;;;;;15.49;60.91;98739.84;5065586;28;20522;-77
2022/09/03 07:29:53;;;;;;;5.68;2.25;;;;;;;15.14;61.86;98746.28;5066869;28;20048;-78
2022/09/03 07:32:18;;;;;;;2.72;2.00;;;;;;;15.08;61.57;98736.66;5055043;28;20177;-78
2022/09/03 07:34:44;;;;;;;3.03;1.88;;;;;;;15.29;61.83;98743.47;5063544;28;20032;-78
2022/09/03 07:37:09;;;;;;;3.30;2.17;;;;;;;15.40;61.16;98738.78;5067838;28;20070;-78
2022/09/03 07:39:35;;;;;;;6.80;2.22;;;;;;;15.08;61.66;98723.19;5051612;28;20052;-78
2022/09/03 07:42:01;;;;;;;4.68;2.05;;;;;;;15.05;61.60;98747.16;5062516;28;20033;-78
2022/09/03 07:44:28;;;;;;;6.07;2.30;;;;;;;15.27;61.45;98718.75;5072356;28;20508;-78
2022/09/03 07:46:54;;;;;;;2.50;1.98;;;;;;;15.37;60.94;98740.19;5044300;28;20033;-78
2022/09/03 07:49:20;;;;;;;2.53;2.33;;;;;;;15.62;60.41;98723.03;5052196;28;20101;-78
2022/09/03 07:51:49;;;;;;;4.88;2.50;;;;;;;15.77;60.50;98739.84;5050002;28;20032;-77
2022/09/03 07:54:15;;;;;;;2.78;2.20;;;;;;;15.68;60.22;98728.06;5065816;28;20028;-78
2022/09/03 07:56:40;;;;;;;6.35;2.03;;;;;;;15.49;60.77;98707.56;5072009;28;20496;-80
2022/09/03 07:59:07;;;;;;;3.33;2.72;;;;;;;15.77;60.71;98730.94;5056511;28;20127;-78
2022/09/03 08:01:33;;;;;;;2.33;1.88;;;;;;;15.67;60.10;98733.75;5067364;28;20040;-78
2022/09/03 08:04:00;;;;;;;9.32;2.90;;;;;;;15.92;59.96;98735.41;5050617;28;20120;-78
2022/09/03 08:06:27;;;;;;;5.20;2.38;;;;;;;15.98;59.56;98724.28;5056945;28;20024;-77
2022/09/03 08:09:01;;;;;;;2.97;2.15;;;;;;;15.65;59.25;98717.91;5072299;28;20560;-78
2022/09/03 08:11:28;;;;;;;4.57;2.40;;;;;;;16.00;59.88;98738.25;5045553;28;20383;-77
2022/09/03 08:14:04;;;;;;;2.85;2.00;;;;;;;16.41;58.95;98742.09;5069371;28;20035;-78
2022/09/03 08:16:33;;;;;;;2.08;1.88;;;;;;;16.31;58.73;98736.03;5068111;28;20029;-78
2022/09/03 08:18:59;;;;;;;9.20;3.30;;;;;;;16.19;59.07;98736.41;5079239;28;20029;-79
2022/09/03 08:21:25;;;;;;;7.18;2.13;;;;;;;16.40;58.53;98739.69;5062151;28;20055;-79
2022/09/03 08:23:53;;;;;;;4.97;1.90;;;;;;;16.68;58.29;98727.22;5055644;28;20059;-79
2022/09/03 08:26:20;;;;;;;29.10;5.72;;;;;;;16.95;57.86;98741.63;5072801;28;20067;-79
2022/09/03 08:28:51;;;;;;;4.82;2.03;;;;;;;16.43;58.08;98712.97;5061285;28;20028;-79
2022/09/03 08:31:19;;;;;;;5.03;2.47;;;;;;;16.79;57.71;98739.47;5071921;28;20097;-78
2022/09/03 08:33:47;;;;;;;9.93;2.28;;;;;;;16.65;57.73;98725.91;5045039;28;20108;-78
2022/09/03 08:36:16;;;;;;;25.73;3.58;;;;;;;17.17;56.74;98719.44;5070433;28;20036;-78
2022/09/03 08:38:44;;;;;;;9.35;2.60;;;;;;;17.06;57.13;98724.22;5069622;28;20039;-79
2022/09/03 08:41:15;;;;;;;3.15;2.35;;;;;;;17.31;56.63;98735.69;5067199;28;20589;-79
2022/09/03 08:44:05;;;;;;;3.58;1.90;;;;;;;16.96;57.36;98735.16;5068245;28;20063;-78
2022/09/03 08:46:46;;;;;;;2.63;2.10;;;;;;;17.12;57.23;98731.13;5062583;28;20032;-78
2022/09/03 08:49:16;;;;;;;4.90;2.17;;;;;;;17.21;56.57;98734.75;5062002;28;20629;-79
2022/09/03 08:51:45;;;;;;;5.57;2.17;;;;;;;17.52;56.01;98745.06;5080373;28;20638;-79
2022/09/03 08:54:12;;;;;;;3.60;2.17;;;;;;;17.40;56.40;98734.75;5074936;28;20096;-79
2022/09/03 08:56:41;;;;;;;3.05;2.20;;;;;;;17.36;55.71;98744.53;5064245;28;20036;-79
2022/09/03 08:59:08;;;;;;;4.18;2.53;;;;;;;17.35;56.04;98723.22;5065109;28;20047;-79
2022/09/03 09:01:33;;;;;;;4.70;2.75;;;;;;;17.68;55.59;98738.34;5065638;28;20028;-79
2022/09/03 09:04:23;;;;;;;7.55;3.05;;;;;;;17.75;54.78;98736.84;5066224;28;20043;-78
2022/09/03 09:07:03;;;;;;;3.20;2.28;;;;;;;17.43;55.53;98734.13;5063025;28;20032;-77
2022/09/03 09:09:48;;;;;;;2.83;1.90;;;;;;;17.63;55.16;98733.81;5067275;28;20119;-78
2022/09/03 09:12:14;;;;;;;6.57;2.42;;;;;;;17.60;55.65;98726.34;5069735;28;20028;-78
2022/09/03 09:15:00;;;;;;;4.43;2.30;;;;;;;17.98;55.06;98725.06;5070013;28;20388;-78
2022/09/03 09:17:37;;;;;;;2.03;1.77;;;;;;;18.10;54.16;98732.69;5065347;28;20593;-78
2022/09/03 09:20:40;;;;;;;3.30;2.08;;;;;;;17.95;54.30;98725.66;5061903;28;20024;-78
2022/09/03 09:23:12;;;;;;;3.05;1.75;;;;;;;18.20;54.17;98721.66;5068199;28;20081;-79
2022/09/03 09:25:47;;;;;;;2.60;2.08;;;;;;;18.35;53.76;98724.06;5068036;28;20028;-78
2022/09/03 09:28:21;;;;;;;1.98;1.70;;;;;;;18.19;53.26;98719.28;5063513;28;20472;-78
2022/09/03 09:30:48;;;;;;;4.88;2.40;;;;;;;18.21;52.85;98730.59;5061985;28;20033;-78
2022/09/03 09:33:15;;;;;;;44.67;9.60;;;;;;;18.52;53.33;98712.69;5058799;28;20025;-78
2022/09/03 09:35:41;;;;;;;5.45;2.38;;;;;;;18.15;52.93;98683.16;5063856;28;20085;-78
2022/09/03 09:38:09;;;;;;;2.70;2.03;;;;;;;18.38;53.90;98728.88;5061191;28;20032;-78
2022/09/03 09:40:37;;;;;;;3.97;1.95;;;;;;;18.68;52.92;98717.44;5057593;28;20035;-78
2022/09/03 09:43:06;;;;;;;8.07;2.13;;;;;;;18.68;52.76;98714.75;5062848;28;20033;-78
2022/09/03 09:45:33;;;;;;;2.42;2.03;;;;;;;18.85;52.15;98714.09;5066194;28;20028;-78
2022/09/03 09:48:01;;;;;;;2.63;2.40;;;;;;;18.59;51.69;98710.34;5060973;28;20115;-78
2022/09/03 09:50:26;;;;;;;2.92;1.88;;;;;;;19.04;51.41;98698.50;5066649;28;20119;-78
2022/09/03 09:53:07;;;;;;;5.00;2.33;;;;;;;19.03;51.86;98682.56;5077850;28;20108;-78
2022/09/03 09:55:33;;;;;;;8.48;2.00;;;;;;;19.33;50.11;98701.56;5061808;28;20028;-78
2022/09/03 09:58:10;;;;;;;5.38;2.08;;;;;;;19.37;50.50;98694.44;5062096;28;20032;-78
2022/09/03 10:00:37;;;;;;;5.65;1.95;;;;;;;19.08;50.90;98685.16;5058866;28;20024;-78
2022/09/03 10:03:09;;;;;;;2.55;1.80;;;;;;;19.16;49.67;98681.69;5061386;28;20060;-79
2022/09/03 10:05:38;;;;;;;3.30;1.80;;;;;;;19.16;49.84;98668.16;5062079;28;20032;-78
2022/09/03 10:08:18;;;;;;;3.83;1.77;;;;;;;19.59;49.72;98677.41;5044303;28;20029;-79
2022/09/03 10:10:50;;;;;;;4.15;1.70;;;;;;;19.45;48.71;98676.66;5066377;28;20063;-79
2022/09/03 10:13:40;;;;;;;3.38;1.73;;;;;;;19.62;49.25;98676.75;5056996;28;20476;-79
2022/09/03 10:16:19;;;;;;;4.22;1.70;;;;;;;19.74;48.56;98674.28;5066861;28;20036;-78
2022/09/03 10:18:53;;;;;;;2.17;1.52;;;;;;;20.31;47.83;98683.28;5063017;28;20037;-78
2022/09/03 10:21:31;;;;;;;5.47;1.77;;;;;;;20.02;48.70;98688.41;5059263;28;20147;-78
2022/09/03 10:24:03;;;;;;;1.88;1.77;;;;;;;20.15;47.32;98685.59;5055335;28;20033;-78
2022/09/03 10:26:29;;;;;;;6.03;2.13;;;;;;;20.40;46.91;98683.28;5055404;28;20047;-78
2022/09/03 10:28:57;;;;;;;4.20;1.55;;;;;;;20.16;47.23;98667.38;5065012;28;20040;-78
2022/09/03 10:31:42;;;;;;;5.68;1.52;;;;;;;20.39;47.06;98687.09;5062755;28;20036;-79
2022/09/03 10:34:13;;;;;;;6.05;1.73;;;;;;;20.82;46.10;98683.31;5071174;28;20040;-78
2022/09/03 10:36:49;;;;;;;3.65;1.67;;;;;;;20.51;45.58;98654.75;5059656;28;20461;-78
2022/09/03 10:39:22;;;;;;;;;;;;;;;20.50;44.99;98685.69;5065484;28;20036;-78
2022/09/03 10:42:01;;;;;;;2.97;1.50;;;;;;;20.57;45.45;98683.31;5060208;28;20454;-78
2022/09/03 10:44:59;;;;;;;4.15;1.70;;;;;;;20.89;44.89;98675.50;5052666;28;20139;-78
2022/09/03 10:47:57;;;;;;;4.57;2.28;;;;;;;20.88;45.06;98682.03;5064975;28;20378;-78
2022/09/03 10:50:27;;;;;;;1.85;1.27;;;;;;;20.94;44.41;98666.41;5041661;28;20079;-78
2022/09/03 10:53:14;;;;;;;4.00;1.80;;;;;;;21.15;44.43;98669.28;5046925;28;21934;-78
2022/09/03 10:55:54;;;;;;;2.95;1.90;;;;;;;21.51;44.21;98667.75;5051147;28;20046;-78
2022/09/03 10:59:07;;;;;;;4.97;1.50;;;;;;;21.39;44.12;98654.06;5062452;28;20044;-79
2022/09/03 11:02:05;;;;;;;4.38;1.55;;;;;;;21.39;44.36;98672.28;5055195;28;20072;-78
2022/09/03 11:04:49;;;;;;;1.42;1.27;;;;;;;21.63;43.92;98665.19;5062632;28;20092;-78
2022/09/03 11:07:19;;;;;;;1.70;1.23;;;;;;;21.44;43.82;98663.97;5061984;28;20492;-78
2022/09/03 11:10:02;;;;;;;2.00;1.70;;;;;;;21.24;43.69;98662.72;5061109;28;20028;-78
2022/09/03 11:12:32;;;;;;;6.72;1.60;;;;;;;21.85;42.63;98661.44;5059849;28;20411;-78
2022/09/03 11:15:46;;;;;;;3.08;1.50;;;;;;;21.96;42.86;98662.69;5074972;28;20038;-78
2022/09/03 11:18:19;;;;;;;3.88;1.27;;;;;;;22.12;42.99;98657.50;5054102;28;20438;-79
2022/09/03 11:20:48;;;;;;;1.63;1.42;;;;;;;22.23;42.46;98645.91;5051625;28;20032;-79
2022/09/03 11:23:16;;;;;;;4.50;1.77;;;;;;;22.31;42.40;98636.91;5052224;28;20037;-78
2022/09/03 11:25:52;;;;;;;4.32;1.80;;;;;;;22.67;41.90;98654.59;5034686;28;20028;-78
2022/09/03 11:28:36;;;;;;;4.05;1.60;;;;;;;22.66;41.58;98656.53;5057978;28;20082;-78
2022/09/03 11:31:14;;;;;;;2.38;1.40;;;;;;;22.89;42.04;98652.31;5048794;28;20535;-78
2022/09/03 11:33:46;;;;;;;13.30;2.78;;;;;;;22.25;42.17;98640.94;5052822;28;20465;-78
2022/09/03 11:36:12;;;;;;;3.97;1.63;;;;;;;22.82;42.29;98649.38;5078430;28;20113;-78
2022/09/03 11:38:38;;;;;;;4.60;1.85;;;;;;;22.19;42.09;98644.19;5041523;28;21892;-78
2022/09/03 11:41:24;;;;;;;3.00;1.88;;;;;;;22.43;43.15;98646.25;5040109;28;20047;-78
2022/09/03 11:43:50;;;;;;;;;;;;;;;22.67;41.38;98657.31;5070539;28;20045;-79
2022/09/03 11:46:21;;;;;;;20.27;2.07;;;;;;;22.74;41.42;98646.69;5053682;28;19917;-78
2022/09/03 11:48:50;;;;;;;2.80;1.50;;;;;;;22.63;41.38;98645.53;5057063;28;20032;-78
2022/09/03 11:51:36;;;;;;;3.83;1.67;;;;;;;22.60;41.61;98643.44;5075065;28;20034;-78
2022/09/03 11:54:06;;;;;;;7.75;1.60;;;;;;;22.94;41.23;98638.50;5057955;28;20036;-78
2022/09/03 11:56:34;;;;;;;3.47;1.70;;;;;;;23.11;41.13;98640.25;5059595;28;20067;-78